Bda Esteves, Puerto Rico
Current Conditions -  °F | °C
As of 10:50 AM on Thursday 30 Oct 2014 (Local Time) from TJBQ Reporting Station
Scattered Clouds Scattered Clouds  
Wind Chill: 86°   Ceiling: Unl
Heat Index: 95°   Visibility: 10mi
Dew Point: 75°   Wind: 6mph
Humidity: 70%   Direction: 20°NNE
Pressure: 29.88"   Gusts: NA
Location:  18.4409°N, 67.1508°W
Report Text: TJBQ 301450Z 02005KT 10SM SCT050 30/24 A2988 RMK RWY08 ATIS W
Loading
Personal Weather Stations






























Interactive Weather Map
Tropical Storm Tracking
New forecast layout! Learn more

10-Day Weather Forecast

Advertisements
Track Severe Weather on mobile